sensor_id;sensor_type;location;lat;lon;timestamp;temperature;humidity
2453;DHT22;63678;47.994;7.854;2023-05-16T00:02:02;15.20;99.90
2453;DHT22;63678;47.994;7.854;2023-05-16T00:07:08;14.80;99.90
2453;DHT22;63678;47.994;7.854;2023-05-16T00:12:16;14.80;99.90
2453;DHT22;63678;47.994;7.854;2023-05-16T00:14:51;14.80;99.90
2453;DHT22;63678;47.994;7.854;2023-05-16T00:17:24;14.60;99.90
2453;DHT22;63678;47.994;7.854;2023-05-16T00:20:00;14.40;99.90
2453;DHT22;63678;47.994;7.854;2023-05-16T00:22:34;14.40;99.90
2453;DHT22;63678;47.994;7.854;2023-05-16T00:25:07;14.60;99.90
2453;DHT22;63678;47.994;7.854;2023-05-16T00:27:40;14.70;99.90
2453;DHT22;63678;47.994;7.854;2023-05-16T00:35:18;14.90;99.90
2453;DHT22;63678;47.994;7.854;2023-05-16T00:37:53;15.00;99.90
2453;DHT22;63678;47.994;7.854;2023-05-16T00:45:32;14.40;99.90
2453;DHT22;63678;47.994;7.854;2023-05-16T00:48:05;14.80;99.90
2453;DHT22;63678;47.994;7.854;2023-05-16T00:50:38;15.10;99.90
2453;DHT22;63678;47.994;7.854;2023-05-16T00:53:10;14.70;99.90
2453;DHT22;63678;47.994;7.854;2023-05-16T00:55:43;14.60;99.90
2453;DHT22;63678;47.994;7.854;2023-05-16T00:58:16;14.40;99.90
2453;DHT22;63678;47.994;7.854;2023-05-16T01:00:49;14.80;99.90
2453;DHT22;63678;47.994;7.854;2023-05-16T01:03:22;14.20;99.90
2453;DHT22;63678;47.994;7.854;2023-05-16T01:05:56;13.70;99.90
2453;DHT22;63678;47.994;7.854;2023-05-16T01:08:29;13.30;99.90
2453;DHT22;63678;47.994;7.854;2023-05-16T01:22:34;14.40;99.90
2453;DHT22;63678;47.994;7.854;2023-05-16T01:28:01;14.40;99.90
2453;DHT22;63678;47.994;7.854;2023-05-16T01:30:36;13.40;99.90
2453;DHT22;63678;47.994;7.854;2023-05-16T01:33:12;13.90;99.90
2453;DHT22;63678;47.994;7.854;2023-05-16T01:36:07;13.90;99.90
2453;DHT22;63678;47.994;7.854;2023-05-16T01:42:06;13.40;99.90
2453;DHT22;63678;47.994;7.854;2023-05-16T01:44:57;13.30;99.90
2453;DHT22;63678;47.994;7.854;2023-05-16T01:47:34;13.00;99.90
2453;DHT22;63678;47.994;7.854;2023-05-16T01:50:15;13.50;99.90
2453;DHT22;63678;47.994;7.854;2023-05-16T01:53:05;13.10;99.90
2453;DHT22;63678;47.994;7.854;2023-05-16T01:55:47;13.10;99.90
2453;DHT22;63678;47.994;7.854;2023-05-16T01:58:25;12.80;99.90
2453;DHT22;63678;47.994;7.854;2023-05-16T02:01:03;13.20;99.90
2453;DHT22;63678;47.994;7.854;2023-05-16T02:03:36;13.20;99.90
2453;DHT22;63678;47.994;7.854;2023-05-16T02:06:11;13.20;99.90
2453;DHT22;63678;47.994;7.854;2023-05-16T02:11:16;13.20;99.90
2453;DHT22;63678;47.994;7.854;2023-05-16T02:13:48;13.00;99.90
2453;DHT22;63678;47.994;7.854;2023-05-16T02:16:20;13.50;99.90
2453;DHT22;63678;47.994;7.854;2023-05-16T02:18:53;13.70;99.90
2453;DHT22;63678;47.994;7.854;2023-05-16T02:21:26;13.70;99.90
2453;DHT22;63678;47.994;7.854;2023-05-16T02:23:58;13.60;99.90
2453;DHT22;63678;47.994;7.854;2023-05-16T02:26:31;14.50;99.90
2453;DHT22;63678;47.994;7.854;2023-05-16T02:29:04;15.00;99.90
2453;DHT22;63678;47.994;7.854;2023-05-16T02:31:36;15.10;99.90
2453;DHT22;63678;47.994;7.854;2023-05-16T02:34:09;15.20;99.90
2453;DHT22;63678;47.994;7.854;2023-05-16T02:36:42;15.10;99.90
2453;DHT22;63678;47.994;7.854;2023-05-16T02:39:14;15.00;99.90
2453;DHT22;63678;47.994;7.854;2023-05-16T02:41:46;14.90;99.90
2453;DHT22;63678;47.994;7.854;2023-05-16T02:44:19;14.70;99.90
2453;DHT22;63678;47.994;7.854;2023-05-16T02:46:51;15.20;99.90
2453;DHT22;63678;47.994;7.854;2023-05-16T02:57:03;15.10;99.90
2453;DHT22;63678;47.994;7.854;2023-05-16T02:59:35;14.90;99.90
2453;DHT22;63678;47.994;7.854;2023-05-16T03:04:43;14.70;99.90
2453;DHT22;63678;47.994;7.854;2023-05-16T03:07:15;14.70;99.90
2453;DHT22;63678;47.994;7.854;2023-05-16T03:09:49;14.60;99.90
2453;DHT22;63678;47.994;7.854;2023-05-16T03:12:22;14.30;99.90
2453;DHT22;63678;47.994;7.854;2023-05-16T03:14:54;13.90;99.90
2453;DHT22;63678;47.994;7.854;2023-05-16T03:17:26;13.60;99.90
2453;DHT22;63678;47.994;7.854;2023-05-16T03:20:01;13.40;99.90
2453;DHT22;63678;47.994;7.854;2023-05-16T03:22:34;13.30;99.90
2453;DHT22;63678;47.994;7.854;2023-05-16T03:25:07;13.30;99.90
2453;DHT22;63678;47.994;7.854;2023-05-16T03:27:44;13.20;99.90
2453;DHT22;63678;47.994;7.854;2023-05-16T03:30:18;13.10;99.90
2453;DHT22;63678;47.994;7.854;2023-05-16T03:32:51;13.10;99.90
2453;DHT22;63678;47.994;7.854;2023-05-16T03:37:57;12.90;99.90
2453;DHT22;63678;47.994;7.854;2023-05-16T03:40:29;12.80;99.90
2453;DHT22;63678;47.994;7.854;2023-05-16T03:45:36;12.70;99.90
2453;DHT22;63678;47.994;7.854;2023-05-16T03:56:09;12.60;99.90
2453;DHT22;63678;47.994;7.854;2023-05-16T03:58:44;12.50;99.90
2453;DHT22;63678;47.994;7.854;2023-05-16T04:01:16;12.50;99.90
2453;DHT22;63678;47.994;7.854;2023-05-16T04:03:52;12.50;99.90
2453;DHT22;63678;47.994;7.854;2023-05-16T04:06:24;12.50;99.90
2453;DHT22;63678;47.994;7.854;2023-05-16T04:08:56;12.40;99.90
2453;DHT22;63678;47.994;7.854;2023-05-16T04:14:22;12.40;99.90
2453;DHT22;63678;47.994;7.854;2023-05-16T04:16:55;12.30;99.90
2453;DHT22;63678;47.994;7.854;2023-05-16T04:19:27;12.30;99.90
2453;DHT22;63678;47.994;7.854;2023-05-16T04:22:00;12.20;99.90
2453;DHT22;63678;47.994;7.854;2023-05-16T04:24:32;12.40;99.90
2453;DHT22;63678;47.994;7.854;2023-05-16T04:27:06;12.40;99.90
2453;DHT22;63678;47.994;7.854;2023-05-16T04:32:14;12.30;99.90
2453;DHT22;63678;47.994;7.854;2023-05-16T04:37:24;12.30;99.90
2453;DHT22;63678;47.994;7.854;2023-05-16T04:45:04;12.30;99.90
2453;DHT22;63678;47.994;7.854;2023-05-16T04:47:38;12.40;99.90
2453;DHT22;63678;47.994;7.854;2023-05-16T04:50:11;12.40;99.90
2453;DHT22;63678;47.994;7.854;2023-05-16T04:52:44;12.40;99.90
2453;DHT22;63678;47.994;7.854;2023-05-16T04:55:16;12.40;99.90
2453;DHT22;63678;47.994;7.854;2023-05-16T04:57:49;12.40;99.90
2453;DHT22;63678;47.994;7.854;2023-05-16T05:02:55;12.40;99.90
2453;DHT22;63678;47.994;7.854;2023-05-16T05:08:01;12.40;99.90
2453;DHT22;63678;47.994;7.854;2023-05-16T05:13:06;12.40;99.90
2453;DHT22;63678;47.994;7.854;2023-05-16T05:15:39;12.40;99.90
2453;DHT22;63678;47.994;7.854;2023-05-16T05:20:45;12.40;99.90
2453;DHT22;63678;47.994;7.854;2023-05-16T05:23:17;12.40;99.90
2453;DHT22;63678;47.994;7.854;2023-05-16T05:30:57;12.30;99.90
2453;DHT22;63678;47.994;7.854;2023-05-16T05:33:29;12.30;99.90
2453;DHT22;63678;47.994;7.854;2023-05-16T05:36:03;12.40;99.90
2453;DHT22;63678;47.994;7.854;2023-05-16T05:38:35;12.30;99.90
2453;DHT22;63678;47.994;7.854;2023-05-16T05:41:28;12.30;99.90
2453;DHT22;63678;47.994;7.854;2023-05-16T05:44:01;12.30;99.90
2453;DHT22;63678;47.994;7.854;2023-05-16T05:49:09;12.30;99.90
2453;DHT22;63678;47.994;7.854;2023-05-16T05:51:40;12.30;99.90
2453;DHT22;63678;47.994;7.854;2023-05-16T06:01:57;12.10;99.90
2453;DHT22;63678;47.994;7.854;2023-05-16T06:04:31;12.10;99.90
2453;DHT22;63678;47.994;7.854;2023-05-16T06:09:37;12.10;99.90
2453;DHT22;63678;47.994;7.854;2023-05-16T06:17:18;12.00;99.90
2453;DHT22;63678;47.994;7.854;2023-05-16T06:19:51;11.90;99.90
2453;DHT22;63678;47.994;7.854;2023-05-16T06:22:23;11.90;99.90
2453;DHT22;63678;47.994;7.854;2023-05-16T06:27:31;11.90;99.90
2453;DHT22;63678;47.994;7.854;2023-05-16T06:30:04;11.80;99.90
2453;DHT22;63678;47.994;7.854;2023-05-16T06:32:39;11.90;99.90
2453;DHT22;63678;47.994;7.854;2023-05-16T06:35:12;11.90;99.90
2453;DHT22;63678;47.994;7.854;2023-05-16T06:37:45;11.80;99.90
2453;DHT22;63678;47.994;7.854;2023-05-16T06:50:53;12.10;99.90
2453;DHT22;63678;47.994;7.854;2023-05-16T06:53:25;12.00;99.90
2453;DHT22;63678;47.994;7.854;2023-05-16T06:58:31;11.90;99.90
2453;DHT22;63678;47.994;7.854;2023-05-16T07:01:04;11.80;99.90
2453;DHT22;63678;47.994;7.854;2023-05-16T07:13:49;11.80;99.90
2453;DHT22;63678;47.994;7.854;2023-05-16T07:16:23;11.90;99.90
2453;DHT22;63678;47.994;7.854;2023-05-16T07:21:53;11.70;99.90
2453;DHT22;63678;47.994;7.854;2023-05-16T07:24:28;11.60;99.90
2453;DHT22;63678;47.994;7.854;2023-05-16T07:27:00;11.70;99.90
2453;DHT22;63678;47.994;7.854;2023-05-16T07:29:34;11.70;99.90
2453;DHT22;63678;47.994;7.854;2023-05-16T07:34:41;11.70;99.90
2453;DHT22;63678;47.994;7.854;2023-05-16T07:37:13;11.70;99.90
2453;DHT22;63678;47.994;7.854;2023-05-16T07:53:20;11.70;99.90
2453;DHT22;63678;47.994;7.854;2023-05-16T07:55:55;11.70;99.90
2453;DHT22;63678;47.994;7.854;2023-05-16T07:58:28;11.80;99.90
2453;DHT22;63678;47.994;7.854;2023-05-16T08:01:00;11.80;99.90
2453;DHT22;63678;47.994;7.854;2023-05-16T08:11:20;11.80;99.90
2453;DHT22;63678;47.994;7.854;2023-05-16T08:16:29;11.90;99.90
2453;DHT22;63678;47.994;7.854;2023-05-16T08:19:02;11.90;99.90
2453;DHT22;63678;47.994;7.854;2023-05-16T08:21:35;11.90;99.90
2453;DHT22;63678;47.994;7.854;2023-05-16T08:24:30;11.80;99.90
2453;DHT22;63678;47.994;7.854;2023-05-16T08:27:03;11.90;99.90
2453;DHT22;63678;47.994;7.854;2023-05-16T08:29:35;11.90;99.90
2453;DHT22;63678;47.994;7.854;2023-05-16T08:32:08;12.00;99.90
2453;DHT22;63678;47.994;7.854;2023-05-16T08:34:43;12.00;99.90
2453;DHT22;63678;47.994;7.854;2023-05-16T08:37:18;12.00;99.90
2453;DHT22;63678;47.994;7.854;2023-05-16T08:39:53;12.00;99.90
2453;DHT22;63678;47.994;7.854;2023-05-16T08:44:59;12.10;99.90
2453;DHT22;63678;47.994;7.854;2023-05-16T08:47:33;12.10;99.90
2453;DHT22;63678;47.994;7.854;2023-05-16T08:50:09;12.10;99.90
2453;DHT22;63678;47.994;7.854;2023-05-16T08:52:43;12.10;99.90
2453;DHT22;63678;47.994;7.854;2023-05-16T08:55:19;12.00;99.90
2453;DHT22;63678;47.994;7.854;2023-05-16T09:00:29;12.00;99.90
2453;DHT22;63678;47.994;7.854;2023-05-16T09:05:38;12.00;99.90
2453;DHT22;63678;47.994;7.854;2023-05-16T09:08:10;12.00;99.90
2453;DHT22;63678;47.994;7.854;2023-05-16T09:10:44;12.00;99.90
2453;DHT22;63678;47.994;7.854;2023-05-16T09:13:17;12.00;99.90
2453;DHT22;63678;47.994;7.854;2023-05-16T09:16:19;12.10;99.90
2453;DHT22;63678;47.994;7.854;2023-05-16T09:18:55;12.10;99.90
2453;DHT22;63678;47.994;7.854;2023-05-16T09:21:33;12.10;99.90
2453;DHT22;63678;47.994;7.854;2023-05-16T09:24:07;12.10;99.90
2453;DHT22;63678;47.994;7.854;2023-05-16T09:27:12;12.10;99.90
2453;DHT22;63678;47.994;7.854;2023-05-16T09:29:49;12.10;99.90
2453;DHT22;63678;47.994;7.854;2023-05-16T09:32:23;12.20;99.90
2453;DHT22;63678;47.994;7.854;2023-05-16T09:37:31;12.20;99.90
2453;DHT22;63678;47.994;7.854;2023-05-16T09:40:05;12.20;99.90
2453;DHT22;63678;47.994;7.854;2023-05-16T09:45:12;12.20;99.90
2453;DHT22;63678;47.994;7.854;2023-05-16T09:47:45;12.20;99.90
2453;DHT22;63678;47.994;7.854;2023-05-16T09:50:18;12.20;99.90
2453;DHT22;63678;47.994;7.854;2023-05-16T09:52:51;12.10;99.90
2453;DHT22;63678;47.994;7.854;2023-05-16T09:58:00;12.10;99.90
2453;DHT22;63678;47.994;7.854;2023-05-16T10:05:42;12.10;99.90
2453;DHT22;63678;47.994;7.854;2023-05-16T10:08:15;12.10;99.90
2453;DHT22;63678;47.994;7.854;2023-05-16T10:10:53;12.10;99.90
2453;DHT22;63678;47.994;7.854;2023-05-16T10:13:31;12.20;99.90
2453;DHT22;63678;47.994;7.854;2023-05-16T10:16:07;12.10;99.90
2453;DHT22;63678;47.994;7.854;2023-05-16T10:18:43;12.10;99.90
2453;DHT22;63678;47.994;7.854;2023-05-16T10:21:17;12.10;99.90
2453;DHT22;63678;47.994;7.854;2023-05-16T10:23:50;12.20;99.90
2453;DHT22;63678;47.994;7.854;2023-05-16T10:26:24;12.20;99.90
2453;DHT22;63678;47.994;7.854;2023-05-16T10:28:59;12.20;99.90
2453;DHT22;63678;47.994;7.854;2023-05-16T10:31:34;12.20;99.90
2453;DHT22;63678;47.994;7.854;2023-05-16T10:34:07;12.30;99.90
2453;DHT22;63678;47.994;7.854;2023-05-16T10:36:39;12.20;99.90
2453;DHT22;63678;47.994;7.854;2023-05-16T10:39:12;12.30;99.90
2453;DHT22;63678;47.994;7.854;2023-05-16T10:41:46;12.30;99.90
2453;DHT22;63678;47.994;7.854;2023-05-16T10:44:18;12.30;99.90
2453;DHT22;63678;47.994;7.854;2023-05-16T10:46:51;12.30;99.90
2453;DHT22;63678;47.994;7.854;2023-05-16T10:49:24;12.40;99.90
2453;DHT22;63678;47.994;7.854;2023-05-16T10:52:07;12.40;99.90
2453;DHT22;63678;47.994;7.854;2023-05-16T10:54:42;12.30;99.90
2453;DHT22;63678;47.994;7.854;2023-05-16T10:57:18;14.20;99.90
2453;DHT22;63678;47.994;7.854;2023-05-16T10:59:53;12.40;99.90
2453;DHT22;63678;47.994;7.854;2023-05-16T11:02:31;12.30;99.90
2453;DHT22;63678;47.994;7.854;2023-05-16T11:05:06;12.30;99.90
2453;DHT22;63678;47.994;7.854;2023-05-16T11:07:40;12.30;99.90
2453;DHT22;63678;47.994;7.854;2023-05-16T11:10:15;12.30;99.90
2453;DHT22;63678;47.994;7.854;2023-05-16T11:12:49;12.40;99.90
2453;DHT22;63678;47.994;7.854;2023-05-16T11:15:25;12.40;99.90
2453;DHT22;63678;47.994;7.854;2023-05-16T11:18:04;12.50;99.90
2453;DHT22;63678;47.994;7.854;2023-05-16T11:20:38;12.50;99.90
2453;DHT22;63678;47.994;7.854;2023-05-16T11:25:55;12.60;99.90
2453;DHT22;63678;47.994;7.854;2023-05-16T11:33:38;11.00;99.90
2453;DHT22;63678;47.994;7.854;2023-05-16T11:36:11;12.60;99.90
2453;DHT22;63678;47.994;7.854;2023-05-16T11:38:47;12.50;99.90
2453;DHT22;63678;47.994;7.854;2023-05-16T11:41:21;12.50;99.90
2453;DHT22;63678;47.994;7.854;2023-05-16T11:46:26;12.50;99.90
2453;DHT22;63678;47.994;7.854;2023-05-16T11:51:32;12.50;99.90
2453;DHT22;63678;47.994;7.854;2023-05-16T11:54:07;12.50;99.90
2453;DHT22;63678;47.994;7.854;2023-05-16T11:59:13;12.50;99.90
2453;DHT22;63678;47.994;7.854;2023-05-16T12:01:46;12.50;99.90
2453;DHT22;63678;47.994;7.854;2023-05-16T12:04:21;12.40;99.90
2453;DHT22;63678;47.994;7.854;2023-05-16T12:06:59;12.50;99.90
2453;DHT22;63678;47.994;7.854;2023-05-16T12:12:06;12.30;99.90
2453;DHT22;63678;47.994;7.854;2023-05-16T12:22:21;12.30;99.90
2453;DHT22;63678;47.994;7.854;2023-05-16T12:24:54;12.30;99.90
2453;DHT22;63678;47.994;7.854;2023-05-16T12:29:59;12.20;99.90
2453;DHT22;63678;47.994;7.854;2023-05-16T12:32:36;12.30;99.90
2453;DHT22;63678;47.994;7.854;2023-05-16T12:35:10;12.30;99.90
2453;DHT22;63678;47.994;7.854;2023-05-16T12:40:17;12.20;99.90
2453;DHT22;63678;47.994;7.854;2023-05-16T12:42:52;12.20;99.90
2453;DHT22;63678;47.994;7.854;2023-05-16T12:45:28;12.10;99.90
2453;DHT22;63678;47.994;7.854;2023-05-16T12:48:04;12.10;99.90
2453;DHT22;63678;47.994;7.854;2023-05-16T12:50:39;12.10;99.90
2453;DHT22;63678;47.994;7.854;2023-05-16T12:58:19;12.10;99.90
2453;DHT22;63678;47.994;7.854;2023-05-16T13:03:24;12.20;99.90
2453;DHT22;63678;47.994;7.854;2023-05-16T13:05:57;12.20;99.90
2453;DHT22;63678;47.994;7.854;2023-05-16T13:18:43;12.10;99.90
2453;DHT22;63678;47.994;7.854;2023-05-16T13:23:48;12.10;99.90
2453;DHT22;63678;47.994;7.854;2023-05-16T13:26:21;12.00;99.90
2453;DHT22;63678;47.994;7.854;2023-05-16T13:36:34;12.10;99.90
2453;DHT22;63678;47.994;7.854;2023-05-16T13:41:57;12.00;99.90
2453;DHT22;63678;47.994;7.854;2023-05-16T13:47:04;12.00;99.90
2453;DHT22;63678;47.994;7.854;2023-05-16T13:57:15;11.80;99.90
2453;DHT22;63678;47.994;7.854;2023-05-16T14:02:24;11.80;99.90
2453;DHT22;63678;47.994;7.854;2023-05-16T14:07:29;11.80;99.90
2453;DHT22;63678;47.994;7.854;2023-05-16T14:10:02;11.80;99.90
2453;DHT22;63678;47.994;7.854;2023-05-16T14:12:35;11.80;99.90
2453;DHT22;63678;47.994;7.854;2023-05-16T14:22:47;11.80;99.90
2453;DHT22;63678;47.994;7.854;2023-05-16T14:25:19;11.70;99.90
2453;DHT22;63678;47.994;7.854;2023-05-16T14:30:24;11.90;99.90
2453;DHT22;63678;47.994;7.854;2023-05-16T14:38:05;11.80;99.90
2453;DHT22;63678;47.994;7.854;2023-05-16T14:43:11;12.00;99.90
2453;DHT22;63678;47.994;7.854;2023-05-16T14:45:43;12.00;99.90
2453;DHT22;63678;47.994;7.854;2023-05-16T14:53:22;12.00;99.90
2453;DHT22;63678;47.994;7.854;2023-05-16T14:55:55;11.90;99.90
2453;DHT22;63678;47.994;7.854;2023-05-16T14:58:27;12.00;99.90
2453;DHT22;63678;47.994;7.854;2023-05-16T15:01:00;12.00;99.90
2453;DHT22;63678;47.994;7.854;2023-05-16T15:03:32;11.90;99.90
2453;DHT22;63678;47.994;7.854;2023-05-16T15:11:30;11.80;99.90
2453;DHT22;63678;47.994;7.854;2023-05-16T15:19:08;11.80;99.90
2453;DHT22;63678;47.994;7.854;2023-05-16T15:24:14;11.70;99.90
2453;DHT22;63678;47.994;7.854;2023-05-16T15:26:48;11.70;99.90
2453;DHT22;63678;47.994;7.854;2023-05-16T15:31:53;11.70;99.90
2453;DHT22;63678;47.994;7.854;2023-05-16T15:34:26;11.70;99.90
2453;DHT22;63678;47.994;7.854;2023-05-16T15:36:59;11.70;99.90
2453;DHT22;63678;47.994;7.854;2023-05-16T15:42:05;11.70;99.90
2453;DHT22;63678;47.994;7.854;2023-05-16T15:44:42;11.70;99.90
2453;DHT22;63678;47.994;7.854;2023-05-16T15:47:14;11.70;99.90
2453;DHT22;63678;47.994;7.854;2023-05-16T15:54:54;11.60;99.90
2453;DHT22;63678;47.994;7.854;2023-05-16T15:59:58;11.60;99.90
2453;DHT22;63678;47.994;7.854;2023-05-16T16:02:31;11.60;99.90
2453;DHT22;63678;47.994;7.854;2023-05-16T16:05:04;11.60;99.90
2453;DHT22;63678;47.994;7.854;2023-05-16T16:10:10;11.60;99.90
2453;DHT22;63678;47.994;7.854;2023-05-16T16:20:37;11.50;99.90
2453;DHT22;63678;47.994;7.854;2023-05-16T16:23:10;11.50;99.90
2453;DHT22;63678;47.994;7.854;2023-05-16T16:30:48;11.50;99.90
2453;DHT22;63678;47.994;7.854;2023-05-16T16:38:27;11.50;99.90
2453;DHT22;63678;47.994;7.854;2023-05-16T16:46:05;11.50;99.90
2453;DHT22;63678;47.994;7.854;2023-05-16T16:51:12;11.60;99.90
2453;DHT22;63678;47.994;7.854;2023-05-16T16:53:44;11.60;99.90
2453;DHT22;63678;47.994;7.854;2023-05-16T16:56:17;11.60;99.90
2453;DHT22;63678;47.994;7.854;2023-05-16T17:06:34;11.60;99.90
2453;DHT22;63678;47.994;7.854;2023-05-16T17:16:55;11.50;99.90
2453;DHT22;63678;47.994;7.854;2023-05-16T17:19:27;11.50;99.90
2453;DHT22;63678;47.994;7.854;2023-05-16T17:24:33;11.50;99.90
2453;DHT22;63678;47.994;7.854;2023-05-16T17:32:11;11.50;99.90
2453;DHT22;63678;47.994;7.854;2023-05-16T17:34:43;11.40;99.90
2453;DHT22;63678;47.994;7.854;2023-05-16T17:42:21;11.50;99.90
2453;DHT22;63678;47.994;7.854;2023-05-16T17:44:53;11.40;99.90
2453;DHT22;63678;47.994;7.854;2023-05-16T17:47:26;11.40;99.90
2453;DHT22;63678;47.994;7.854;2023-05-16T17:55:04;11.40;99.90
2453;DHT22;63678;47.994;7.854;2023-05-16T17:57:38;11.40;99.90
2453;DHT22;63678;47.994;7.854;2023-05-16T18:00:10;11.40;99.90
2453;DHT22;63678;47.994;7.854;2023-05-16T18:02:45;11.40;99.90
2453;DHT22;63678;47.994;7.854;2023-05-16T18:05:20;11.40;99.90
2453;DHT22;63678;47.994;7.854;2023-05-16T18:07:53;11.40;99.90
2453;DHT22;63678;47.994;7.854;2023-05-16T18:10:25;11.40;99.90
2453;DHT22;63678;47.994;7.854;2023-05-16T18:13:11;11.40;99.90
2453;DHT22;63678;47.994;7.854;2023-05-16T18:23:24;11.40;99.90
2453;DHT22;63678;47.994;7.854;2023-05-16T18:25:57;11.40;99.90
2453;DHT22;63678;47.994;7.854;2023-05-16T18:28:29;11.40;99.90
2453;DHT22;63678;47.994;7.854;2023-05-16T18:31:02;11.40;99.90
2453;DHT22;63678;47.994;7.854;2023-05-16T18:36:07;13.10;99.90
2453;DHT22;63678;47.994;7.854;2023-05-16T18:46:22;13.70;99.90
2453;DHT22;63678;47.994;7.854;2023-05-16T18:51:29;13.30;99.90
2453;DHT22;63678;47.994;7.854;2023-05-16T18:56:56;12.20;99.90
2453;DHT22;63678;47.994;7.854;2023-05-16T18:59:29;11.90;99.90
2453;DHT22;63678;47.994;7.854;2023-05-16T19:02:01;11.70;99.90
2453;DHT22;63678;47.994;7.854;2023-05-16T19:04:35;11.50;99.90
2453;DHT22;63678;47.994;7.854;2023-05-16T19:07:07;11.40;99.90
2453;DHT22;63678;47.994;7.854;2023-05-16T19:14:47;11.10;99.90
2453;DHT22;63678;47.994;7.854;2023-05-16T19:19:58;10.90;99.90
2453;DHT22;63678;47.994;7.854;2023-05-16T19:25:04;10.80;99.90
2453;DHT22;63678;47.994;7.854;2023-05-16T19:27:37;10.60;99.90
2453;DHT22;63678;47.994;7.854;2023-05-16T19:30:12;10.70;99.90
2453;DHT22;63678;47.994;7.854;2023-05-16T19:32:44;9.90;99.90
2453;DHT22;63678;47.994;7.854;2023-05-16T19:35:17;10.60;99.90
2453;DHT22;63678;47.994;7.854;2023-05-16T19:37:50;10.60;99.90
2453;DHT22;63678;47.994;7.854;2023-05-16T19:40:23;10.50;99.90
2453;DHT22;63678;47.994;7.854;2023-05-16T19:45:49;10.50;99.90
2453;DHT22;63678;47.994;7.854;2023-05-16T19:50:57;10.50;99.90
2453;DHT22;63678;47.994;7.854;2023-05-16T19:53:31;10.50;99.90
2453;DHT22;63678;47.994;7.854;2023-05-16T19:56:03;10.50;99.90
2453;DHT22;63678;47.994;7.854;2023-05-16T19:58:35;10.30;99.90
2453;DHT22;63678;47.994;7.854;2023-05-16T20:01:08;10.40;99.90
2453;DHT22;63678;47.994;7.854;2023-05-16T20:08:47;10.40;99.90
2453;DHT22;63678;47.994;7.854;2023-05-16T20:13:54;10.20;99.90
2453;DHT22;63678;47.994;7.854;2023-05-16T20:16:27;10.10;99.90
2453;DHT22;63678;47.994;7.854;2023-05-16T20:19:00;10.10;99.90
2453;DHT22;63678;47.994;7.854;2023-05-16T20:21:32;9.90;99.90
2453;DHT22;63678;47.994;7.854;2023-05-16T20:24:05;9.80;99.90
2453;DHT22;63678;47.994;7.854;2023-05-16T20:31:43;9.80;99.90
2453;DHT22;63678;47.994;7.854;2023-05-16T20:34:16;9.80;99.90
2453;DHT22;63678;47.994;7.854;2023-05-16T20:36:48;9.80;99.90
2453;DHT22;63678;47.994;7.854;2023-05-16T20:44:27;8.40;99.90
2453;DHT22;63678;47.994;7.854;2023-05-16T20:47:00;9.70;99.90
2453;DHT22;63678;47.994;7.854;2023-05-16T20:54:43;9.70;99.90
2453;DHT22;63678;47.994;7.854;2023-05-16T20:57:15;9.80;99.90
2453;DHT22;63678;47.994;7.854;2023-05-16T20:59:49;9.80;99.90
2453;DHT22;63678;47.994;7.854;2023-05-16T21:02:22;9.90;99.90
2453;DHT22;63678;47.994;7.854;2023-05-16T21:07:33;9.90;99.90
2453;DHT22;63678;47.994;7.854;2023-05-16T21:10:05;9.90;99.90
2453;DHT22;63678;47.994;7.854;2023-05-16T21:12:38;9.90;99.90
2453;DHT22;63678;47.994;7.854;2023-05-16T21:15:10;9.90;99.90
2453;DHT22;63678;47.994;7.854;2023-05-16T21:17:43;9.90;99.90
2453;DHT22;63678;47.994;7.854;2023-05-16T21:20:15;9.80;99.90
2453;DHT22;63678;47.994;7.854;2023-05-16T21:22:48;9.80;99.90
2453;DHT22;63678;47.994;7.854;2023-05-16T21:25:20;9.80;99.90
2453;DHT22;63678;47.994;7.854;2023-05-16T21:30:25;9.60;99.90
2453;DHT22;63678;47.994;7.854;2023-05-16T21:32:58;9.60;99.90
2453;DHT22;63678;47.994;7.854;2023-05-16T21:35:30;9.60;99.90
2453;DHT22;63678;47.994;7.854;2023-05-16T21:38:03;9.50;99.90
2453;DHT22;63678;47.994;7.854;2023-05-16T21:40:35;9.50;99.90
2453;DHT22;63678;47.994;7.854;2023-05-16T21:45:40;9.50;99.90
2453;DHT22;63678;47.994;7.854;2023-05-16T21:55:54;9.40;99.90
2453;DHT22;63678;47.994;7.854;2023-05-16T21:58:27;9.30;99.90
2453;DHT22;63678;47.994;7.854;2023-05-16T22:00:59;9.30;99.90
2453;DHT22;63678;47.994;7.854;2023-05-16T22:03:32;9.20;99.90
2453;DHT22;63678;47.994;7.854;2023-05-16T22:06:05;9.20;99.90
2453;DHT22;63678;47.994;7.854;2023-05-16T22:13:43;9.10;99.90
2453;DHT22;63678;47.994;7.854;2023-05-16T22:16:15;9.20;99.90
2453;DHT22;63678;47.994;7.854;2023-05-16T22:18:48;9.10;99.90
2453;DHT22;63678;47.994;7.854;2023-05-16T22:23:53;9.00;99.90
2453;DHT22;63678;47.994;7.854;2023-05-16T22:26:26;9.00;99.90
2453;DHT22;63678;47.994;7.854;2023-05-16T22:28:58;9.00;99.90
2453;DHT22;63678;47.994;7.854;2023-05-16T22:31:30;9.00;99.90
2453;DHT22;63678;47.994;7.854;2023-05-16T22:34:03;8.90;99.90
2453;DHT22;63678;47.994;7.854;2023-05-16T22:36:35;8.90;99.90
2453;DHT22;63678;47.994;7.854;2023-05-16T22:39:08;9.90;99.90
2453;DHT22;63678;47.994;7.854;2023-05-16T22:41:41;11.30;99.90
2453;DHT22;63678;47.994;7.854;2023-05-16T22:49:19;12.20;99.90
2453;DHT22;63678;47.994;7.854;2023-05-16T22:51:51;11.80;99.90
2453;DHT22;63678;47.994;7.854;2023-05-16T22:54:24;11.50;99.90
2453;DHT22;63678;47.994;7.854;2023-05-16T23:04:35;11.40;99.90
2453;DHT22;63678;47.994;7.854;2023-05-16T23:07:08;11.90;99.90
2453;DHT22;63678;47.994;7.854;2023-05-16T23:09:40;11.60;99.90
2453;DHT22;63678;47.994;7.854;2023-05-16T23:12:13;11.70;99.90
2453;DHT22;63678;47.994;7.854;2023-05-16T23:14:45;12.30;99.90
2453;DHT22;63678;47.994;7.854;2023-05-16T23:17:18;12.50;99.90
2453;DHT22;63678;47.994;7.854;2023-05-16T23:19:51;12.90;99.90
2453;DHT22;63678;47.994;7.854;2023-05-16T23:22:23;12.70;99.90
2453;DHT22;63678;47.994;7.854;2023-05-16T23:24:56;11.70;99.90
2453;DHT22;63678;47.994;7.854;2023-05-16T23:27:29;12.00;99.90
2453;DHT22;63678;47.994;7.854;2023-05-16T23:30:01;12.40;99.90
2453;DHT22;63678;47.994;7.854;2023-05-16T23:35:07;11.80;99.90
2453;DHT22;63678;47.994;7.854;2023-05-16T23:37:40;12.60;99.90
2453;DHT22;63678;47.994;7.854;2023-05-16T23:40:12;12.40;99.90
2453;DHT22;63678;47.994;7.854;2023-05-16T23:42:45;11.80;99.90
2453;DHT22;63678;47.994;7.854;2023-05-16T23:45:17;11.90;99.90
2453;DHT22;63678;47.994;7.854;2023-05-16T23:47:50;11.70;99.90
2453;DHT22;63678;47.994;7.854;2023-05-16T23:50:22;11.40;99.90
2453;DHT22;63678;47.994;7.854;2023-05-16T23:52:55;11.20;99.90
2453;DHT22;63678;47.994;7.854;2023-05-16T23:55:27;11.20;99.90
2453;DHT22;63678;47.994;7.854;2023-05-16T23:57:59;10.70;99.90
